createdAt,value
2017-07-22T00:00:40.649Z,1010.34
2017-07-22T00:01:40.671Z,1010.34
2017-07-22T00:02:40.695Z,1010.36
2017-07-22T00:03:40.720Z,1010.39
2017-07-22T00:04:40.750Z,1010.38
2017-07-22T00:05:40.774Z,1010.38
2017-07-22T00:06:40.801Z,1010.38
2017-07-22T00:08:40.853Z,1010.37
2017-07-22T00:09:40.873Z,1010.43
2017-07-22T00:10:40.905Z,1010.4
2017-07-22T00:11:40.929Z,1010.45
2017-07-22T00:12:40.955Z,1010.4
2017-07-22T00:13:40.975Z,1010.44
2017-07-22T00:14:41.006Z,1010.5
2017-07-22T00:15:41.030Z,1010.49
2017-07-22T00:16:41.052Z,1010.5
2017-07-22T00:17:41.080Z,1010.5
2017-07-22T00:18:41.103Z,1010.46
2017-07-22T00:19:41.130Z,1010.49
2017-07-22T00:20:41.158Z,1010.51
2017-07-22T00:21:41.184Z,1010.48
2017-07-22T00:22:41.209Z,1010.5
2017-07-22T00:24:41.258Z,1010.5
2017-07-22T00:25:41.283Z,1010.46
2017-07-22T00:26:41.309Z,1010.43
2017-07-22T00:27:41.336Z,1010.37
2017-07-22T00:28:41.359Z,1010.38
2017-07-22T00:29:41.385Z,1010.4
2017-07-22T00:30:41.410Z,1010.38
2017-07-22T00:31:41.435Z,1010.4
2017-07-22T00:32:41.460Z,1010.39
2017-07-22T00:33:41.482Z,1010.38
2017-07-22T00:34:41.506Z,1010.39
2017-07-22T00:35:41.538Z,1010.41
2017-07-22T00:36:41.562Z,1010.31
2017-07-22T00:37:41.587Z,1010.34
2017-07-22T00:38:41.611Z,1010.33
2017-07-22T00:40:41.658Z,1010.33
2017-07-22T00:41:41.687Z,1010.34
2017-07-22T00:42:41.712Z,1010.34
2017-07-22T00:43:41.736Z,1010.33
2017-07-22T00:44:41.765Z,1010.31
2017-07-22T00:45:41.785Z,1010.34
2017-07-22T00:46:41.813Z,1010.3
2017-07-22T00:47:41.836Z,1010.3
2017-07-22T00:48:41.868Z,1010.33
2017-07-22T00:49:41.939Z,1010.32
2017-07-22T00:50:41.913Z,1010.27
2017-07-22T00:51:41.938Z,1010.24
2017-07-22T00:52:41.965Z,1010.27
2017-07-22T00:53:41.992Z,1010.28
2017-07-22T00:55:42.045Z,1010.28
2017-07-22T00:56:42.065Z,1010.24
2017-07-22T00:57:42.094Z,1010.23
2017-07-22T00:58:42.117Z,1010.14
2017-07-22T00:59:42.145Z,1010.14
2017-07-22T01:00:42.168Z,1010.1
2017-07-22T01:01:42.189Z,1010.06
2017-07-22T01:02:42.214Z,1010.06
2017-07-22T01:03:42.238Z,1010.06
2017-07-22T01:04:42.271Z,1010.05
2017-07-22T01:05:42.290Z,1010.04
2017-07-22T01:06:42.320Z,1010.02
2017-07-22T01:07:42.344Z,1010.09
2017-07-22T01:08:42.373Z,1010.05
2017-07-22T01:09:42.392Z,1010.06
2017-07-22T01:10:42.421Z,1010.03
2017-07-22T01:11:42.441Z,1010.03
2017-07-22T01:12:42.468Z,1010.03
2017-07-22T01:13:42.491Z,1010.03
2017-07-22T01:14:42.522Z,1010.01
2017-07-22T01:15:42.544Z,1010.02
2017-07-22T01:16:42.573Z,1010.01
2017-07-22T01:17:42.596Z,1009.98
2017-07-22T01:18:42.620Z,1010.02
2017-07-22T01:19:42.646Z,1010.01
2017-07-22T01:20:42.668Z,1010.08
2017-07-22T01:21:42.697Z,1010.06
2017-07-22T01:22:42.721Z,1010.07
2017-07-22T01:23:42.748Z,1010.07
2017-07-22T01:24:42.770Z,1010.04
2017-07-22T01:25:42.798Z,1010.02
2017-07-22T01:27:42.847Z,1010.01
2017-07-22T01:28:42.871Z,1010.02
2017-07-22T01:29:42.896Z,1010.03
2017-07-22T01:30:42.921Z,1010.01
2017-07-22T01:31:42.942Z,1010
2017-07-22T01:32:42.972Z,1009.97
2017-07-22T01:33:42.996Z,1009.95
2017-07-22T01:34:43.022Z,1009.94
2017-07-22T01:35:43.050Z,1009.91
2017-07-22T01:36:43.072Z,1009.91
2017-07-22T01:37:43.097Z,1009.9
2017-07-22T01:38:43.124Z,1009.92
2017-07-22T01:39:43.145Z,1009.94
2017-07-22T01:40:43.173Z,1009.91
2017-07-22T01:41:43.196Z,1009.91
2017-07-22T01:43:43.247Z,1009.88
2017-07-22T01:44:43.271Z,1009.84
2017-07-22T01:45:43.296Z,1009.85
2017-07-22T01:46:43.323Z,1009.81
2017-07-22T01:47:43.348Z,1009.78
2017-07-22T01:48:43.373Z,1009.77
2017-07-22T01:49:43.399Z,1009.72
2017-07-22T01:50:43.421Z,1009.71
2017-07-22T01:51:43.446Z,1009.72
2017-07-22T01:52:43.473Z,1009.69
2017-07-22T01:53:43.498Z,1009.67
2017-07-22T01:54:43.524Z,1009.66
2017-07-22T01:55:43.594Z,1009.67
2017-07-22T01:56:43.574Z,1009.65
2017-07-22T01:57:43.599Z,1009.67
2017-07-22T01:59:43.647Z,1009.69
2017-07-22T02:00:43.675Z,1009.75
2017-07-22T02:01:43.699Z,1009.73
2017-07-22T02:02:43.721Z,1009.78
2017-07-22T02:03:43.746Z,1009.76
2017-07-22T02:04:43.771Z,1009.78
2017-07-22T02:05:43.794Z,1009.75
2017-07-22T02:06:43.825Z,1009.77
2017-07-22T02:07:43.844Z,1009.73
2017-07-22T02:08:43.873Z,1009.7
2017-07-22T02:09:43.892Z,1009.72
2017-07-22T02:10:43.922Z,1009.67
2017-07-22T02:11:43.948Z,1009.71
2017-07-22T02:12:43.974Z,1009.64
2017-07-22T02:13:43.997Z,1009.64
2017-07-22T02:15:44.049Z,1009.67
2017-07-22T02:16:44.069Z,1009.64
2017-07-22T02:17:44.098Z,1009.68
2017-07-22T02:18:44.122Z,1009.7
2017-07-22T02:19:44.147Z,1009.65
2017-07-22T02:20:44.166Z,1009.64
2017-07-22T02:21:44.197Z,1009.67
2017-07-22T02:22:44.223Z,1009.69
2017-07-22T02:23:44.245Z,1009.71
2017-07-22T02:24:44.266Z,1009.76
2017-07-22T02:25:44.298Z,1009.78
2017-07-22T02:26:44.320Z,1009.77
2017-07-22T02:27:44.343Z,1009.74
2017-07-22T02:28:44.372Z,1009.81
2017-07-22T02:30:44.421Z,1009.81
2017-07-22T02:31:44.445Z,1009.79
2017-07-22T02:32:44.471Z,1009.82
2017-07-22T02:33:44.495Z,1009.78
2017-07-22T02:34:44.522Z,1009.8
2017-07-22T02:35:44.544Z,1009.76
2017-07-22T02:36:44.621Z,1009.74
2017-07-22T02:37:44.593Z,1009.74
2017-07-22T02:38:44.623Z,1009.75
2017-07-22T02:39:44.645Z,1009.71
2017-07-22T02:40:44.669Z,1009.7
2017-07-22T02:41:44.696Z,1009.7
2017-07-22T02:42:44.717Z,1009.69
2017-07-22T02:43:44.743Z,1009.65
2017-07-22T02:44:44.768Z,1009.67
2017-07-22T02:45:44.795Z,1009.69
2017-07-22T02:46:44.819Z,1009.69
2017-07-22T02:47:44.848Z,1009.71
2017-07-22T02:48:44.869Z,1009.74
2017-07-22T02:49:44.889Z,1009.72
2017-07-22T02:50:44.917Z,1009.76
2017-07-22T02:51:44.944Z,1009.75
2017-07-22T02:52:44.970Z,1009.71
2017-07-22T02:53:44.997Z,1009.73
2017-07-22T02:54:45.019Z,1009.76
2017-07-22T02:55:45.039Z,1009.73
2017-07-22T02:56:45.069Z,1009.71
2017-07-22T02:57:45.097Z,1009.71
2017-07-22T02:58:45.118Z,1009.7
2017-07-22T02:59:45.138Z,1009.68
2017-07-22T03:00:45.166Z,1009.68
2017-07-22T03:02:45.219Z,1009.74
2017-07-22T03:03:45.239Z,1009.76
2017-07-22T03:04:45.266Z,1009.75
2017-07-22T03:05:45.286Z,1009.77
2017-07-22T03:06:45.317Z,1009.8
2017-07-22T03:07:45.346Z,1009.81
2017-07-22T03:08:45.365Z,1009.81
2017-07-22T03:09:45.390Z,1009.83
2017-07-22T03:10:45.414Z,1009.87
2017-07-22T03:11:45.438Z,1009.86
2017-07-22T03:12:45.465Z,1009.86
2017-07-22T03:13:45.490Z,1009.86
2017-07-22T03:14:45.510Z,1009.85
2017-07-22T03:15:45.540Z,1009.85
2017-07-22T03:16:45.563Z,1009.85
2017-07-22T03:18:45.612Z,1009.82
2017-07-22T03:19:45.635Z,1009.78
2017-07-22T03:20:45.662Z,1009.8
2017-07-22T03:21:45.689Z,1009.79
2017-07-22T03:22:45.713Z,1009.76
2017-07-22T03:23:45.736Z,1009.76
2017-07-22T03:24:45.764Z,1009.79
2017-07-22T03:25:45.786Z,1009.79
2017-07-22T03:26:45.810Z,1009.82
2017-07-22T03:27:45.836Z,1009.81
2017-07-22T03:28:45.911Z,1009.81
2017-07-22T03:29:45.884Z,1009.85
2017-07-22T03:30:45.911Z,1009.82
2017-07-22T03:31:45.936Z,1009.81
2017-07-22T03:32:45.958Z,1009.81
2017-07-22T03:34:46.010Z,1009.78
2017-07-22T03:35:46.034Z,1009.78
2017-07-22T03:36:46.058Z,1009.77
2017-07-22T03:37:46.086Z,1009.79
2017-07-22T03:38:46.110Z,1009.82
2017-07-22T03:39:46.134Z,1009.79
2017-07-22T03:40:46.156Z,1009.78
2017-07-22T03:41:46.183Z,1009.79
2017-07-22T03:42:46.205Z,1009.79
2017-07-22T03:43:46.233Z,1009.75
2017-07-22T03:44:46.252Z,1009.74
2017-07-22T03:45:46.282Z,1009.76
2017-07-22T03:46:46.311Z,1009.8
2017-07-22T03:47:46.332Z,1009.79
2017-07-22T03:48:46.354Z,1009.79
2017-07-22T03:50:46.405Z,1009.76
2017-07-22T03:51:46.430Z,1009.74
2017-07-22T03:52:46.456Z,1009.69
2017-07-22T03:53:46.476Z,1009.65
2017-07-22T03:54:46.506Z,1009.6
2017-07-22T03:55:46.529Z,1009.6
2017-07-22T03:56:46.555Z,1009.58
2017-07-22T03:57:46.582Z,1009.58
2017-07-22T03:58:46.605Z,1009.61
2017-07-22T03:59:46.629Z,1009.6
2017-07-22T04:00:46.654Z,1009.58
2017-07-22T04:01:46.680Z,1009.61
2017-07-22T04:02:46.701Z,1009.62
2017-07-22T04:03:46.730Z,1009.67
2017-07-22T04:05:46.781Z,1009.67
2017-07-22T04:06:46.805Z,1009.67
2017-07-22T04:07:46.829Z,1009.64
2017-07-22T04:08:46.856Z,1009.69
2017-07-22T04:09:46.930Z,1009.72
2017-07-22T04:10:46.902Z,1009.69
2017-07-22T04:11:46.925Z,1009.67
2017-07-22T04:12:46.955Z,1009.67
2017-07-22T04:13:46.979Z,1009.64
2017-07-22T04:14:47.004Z,1009.62
2017-07-22T04:15:47.027Z,1009.6
2017-07-22T04:16:47.054Z,1009.57
2017-07-22T04:17:47.077Z,1009.59
2017-07-22T04:18:47.102Z,1009.59
2017-07-22T04:19:47.130Z,1009.63
2017-07-22T04:20:47.156Z,1009.66
2017-07-22T04:21:47.176Z,1009.63
2017-07-22T04:22:47.205Z,1009.65
2017-07-22T04:23:47.226Z,1009.62
2017-07-22T04:24:47.255Z,1009.63
2017-07-22T04:25:47.280Z,1009.65
2017-07-22T04:26:47.301Z,1009.64
2017-07-22T04:27:47.331Z,1009.68
2017-07-22T04:28:47.350Z,1009.69
2017-07-22T04:29:47.380Z,1009.75
2017-07-22T04:30:47.401Z,1009.75
2017-07-22T04:31:47.432Z,1009.76
2017-07-22T04:32:47.456Z,1009.78
2017-07-22T04:33:47.476Z,1009.81
2017-07-22T04:34:47.507Z,1009.86
2017-07-22T04:35:47.530Z,1009.83
2017-07-22T04:37:47.577Z,1009.96
2017-07-22T04:38:47.607Z,1009.93
2017-07-22T04:39:47.634Z,1009.96
2017-07-22T04:40:47.656Z,1009.94
2017-07-22T04:41:47.684Z,1009.97
2017-07-22T04:42:47.709Z,1009.97
2017-07-22T04:43:47.734Z,1009.98
2017-07-22T04:44:47.758Z,1009.98
2017-07-22T04:45:47.783Z,1009.98
2017-07-22T04:46:47.810Z,1009.99
2017-07-22T04:47:47.835Z,1010.01
2017-07-22T04:48:47.859Z,1010.05
2017-07-22T04:49:47.885Z,1010.11
2017-07-22T04:50:47.911Z,1010.03
2017-07-22T04:51:47.940Z,1010.12
2017-07-22T04:53:47.990Z,1010.18
2017-07-22T04:54:48.015Z,1010.2
2017-07-22T04:55:48.042Z,1010.2
2017-07-22T04:56:48.070Z,1010.18
2017-07-22T04:57:48.095Z,1010.18
2017-07-22T04:58:48.121Z,1010.16
2017-07-22T04:59:48.146Z,1010.19
2017-07-22T05:00:48.178Z,1010.15
2017-07-22T05:01:48.204Z,1010.17
2017-07-22T05:02:48.234Z,1010.15
2017-07-22T05:03:48.263Z,1010.18
2017-07-22T05:04:48.293Z,1010.2
2017-07-22T05:05:48.319Z,1010.24
2017-07-22T05:06:48.345Z,1010.24
2017-07-22T05:07:48.446Z,1010.24
2017-07-22T05:09:48.436Z,1010.38
2017-07-22T05:10:48.466Z,1010.37
2017-07-22T05:11:48.506Z,1010.39
2017-07-22T05:12:48.524Z,1010.38
2017-07-22T05:13:48.555Z,1010.4
2017-07-22T05:14:48.587Z,1010.46
2017-07-22T05:15:48.611Z,1010.44
2017-07-22T05:16:48.646Z,1010.48
2017-07-22T05:17:48.676Z,1010.48
2017-07-22T05:18:48.714Z,1010.46
2017-07-22T05:19:48.740Z,1010.48
2017-07-22T05:20:48.773Z,1010.55
2017-07-22T05:21:48.796Z,1010.61
2017-07-22T05:22:48.830Z,1010.6
2017-07-22T05:23:48.859Z,1010.66
2017-07-22T05:25:48.921Z,1010.72
2017-07-22T05:26:48.955Z,1010.72
2017-07-22T05:27:48.983Z,1010.79
2017-07-22T05:28:49.014Z,1010.68
2017-07-22T05:29:49.048Z,1010.66
2017-07-22T05:30:49.071Z,1010.68
2017-07-22T05:31:49.106Z,1010.74
2017-07-22T05:32:49.135Z,1010.74
2017-07-22T05:33:49.168Z,1010.74
2017-07-22T05:34:49.200Z,1010.84
2017-07-22T05:35:49.231Z,1010.81
2017-07-22T05:36:49.260Z,1010.79
2017-07-22T05:37:49.292Z,1010.77
2017-07-22T05:38:49.326Z,1010.74
2017-07-22T05:40:49.391Z,1010.68
2017-07-22T05:41:49.422Z,1010.63
2017-07-22T05:42:49.455Z,1010.75
2017-07-22T05:43:49.486Z,1010.72
2017-07-22T05:44:49.522Z,1010.66
2017-07-22T05:45:49.547Z,1010.58
2017-07-22T05:46:49.587Z,1010.54
2017-07-22T05:47:49.617Z,1010.64
2017-07-22T05:48:49.647Z,1010.62
2017-07-22T05:49:49.682Z,1010.72
2017-07-22T05:50:49.715Z,1010.63
2017-07-22T05:51:49.746Z,1010.69
2017-07-22T05:52:49.780Z,1010.62
2017-07-22T05:53:49.817Z,1010.69
2017-07-22T05:54:49.843Z,1010.7
2017-07-22T05:55:49.876Z,1010.71
2017-07-22T05:56:49.910Z,1010.74
2017-07-22T05:57:49.937Z,1010.79
2017-07-22T05:58:49.971Z,1010.74
2017-07-22T05:59:50.003Z,1010.73
2017-07-22T06:00:50.037Z,1010.64
2017-07-22T06:01:50.065Z,1010.69
2017-07-22T06:02:50.102Z,1010.66
2017-07-22T06:03:50.132Z,1010.62
2017-07-22T06:04:50.166Z,1010.56
2017-07-22T06:05:50.198Z,1010.53
2017-07-22T06:06:50.238Z,1010.53
2017-07-22T06:07:50.263Z,1010.63
2017-07-22T06:08:50.292Z,1010.56
2017-07-22T06:09:50.326Z,1010.7
2017-07-22T06:10:50.354Z,1010.71
2017-07-22T06:12:50.418Z,1010.67
2017-07-22T06:13:50.457Z,1010.62
2017-07-22T06:14:50.489Z,1010.78
2017-07-22T06:15:50.518Z,1010.75
2017-07-22T06:16:50.544Z,1010.93
2017-07-22T06:17:50.577Z,1010.98
2017-07-22T06:18:50.612Z,1011
2017-07-22T06:19:50.644Z,1011.09
2017-07-22T06:20:50.677Z,1011.12
2017-07-22T06:21:50.707Z,1011.05
2017-07-22T06:22:50.742Z,1011.17
2017-07-22T06:23:50.774Z,1011.17
2017-07-22T06:24:50.807Z,1011.11
2017-07-22T06:25:50.844Z,1011.11
2017-07-22T06:26:50.875Z,1011.11
2017-07-22T06:28:50.944Z,1011.19
2017-07-22T06:29:50.977Z,1011.18
2017-07-22T06:30:51.009Z,1011.09
2017-07-22T06:31:51.046Z,1011.04
2017-07-22T06:32:51.078Z,1011.09
2017-07-22T06:33:51.109Z,1011.03
2017-07-22T06:34:51.148Z,1011.13
2017-07-22T06:35:51.181Z,1011.16
2017-07-22T06:36:51.217Z,1011.19
2017-07-22T06:37:51.249Z,1011.15
2017-07-22T06:38:51.284Z,1011.04
2017-07-22T06:39:51.322Z,1010.93
2017-07-22T06:40:51.350Z,1011.01
2017-07-22T06:41:51.386Z,1011.03
2017-07-22T06:42:51.425Z,1010.93
2017-07-22T06:44:51.494Z,1010.91
2017-07-22T06:45:51.526Z,1011.02
2017-07-22T06:46:51.560Z,1011.07
2017-07-22T06:47:51.596Z,1011.07
2017-07-22T06:48:51.627Z,1010.97
2017-07-22T06:49:51.665Z,1010.92
2017-07-22T06:50:51.699Z,1010.94
2017-07-22T06:51:51.733Z,1010.92
2017-07-22T06:52:51.767Z,1011
2017-07-22T06:53:51.800Z,1011.13
2017-07-22T06:54:51.832Z,1011.02
2017-07-22T06:55:51.870Z,1011.02
2017-07-22T06:56:51.901Z,1011.15
2017-07-22T06:57:51.932Z,1011.12
2017-07-22T06:58:51.969Z,1011.17
2017-07-22T07:00:52.037Z,1011.22
2017-07-22T07:01:52.070Z,1011.26
2017-07-22T07:02:52.104Z,1011.28
2017-07-22T07:03:52.140Z,1011.3
2017-07-22T07:04:52.173Z,1011.35
2017-07-22T07:05:52.206Z,1011.35
2017-07-22T07:06:52.239Z,1011.38
2017-07-22T07:07:52.274Z,1011.44
2017-07-22T07:08:52.308Z,1011.43
2017-07-22T07:09:52.338Z,1011.49
2017-07-22T07:10:52.377Z,1011.48
2017-07-22T07:11:52.410Z,1011.5
2017-07-22T07:12:52.443Z,1011.55
2017-07-22T07:13:52.482Z,1011.62
2017-07-22T07:15:52.554Z,1011.75
2017-07-22T07:16:52.586Z,1011.79
2017-07-22T07:17:52.618Z,1011.84
2017-07-22T07:18:52.652Z,1011.89
2017-07-22T07:19:52.686Z,1011.89
2017-07-22T07:20:52.724Z,1011.96
2017-07-22T07:21:52.757Z,1011.91
2017-07-22T07:22:52.795Z,1011.98
2017-07-22T07:23:52.830Z,1011.92
2017-07-22T07:24:52.864Z,1011.91
2017-07-22T07:25:52.897Z,1011.84
2017-07-22T07:26:52.937Z,1011.74
2017-07-22T07:27:52.974Z,1011.79
2017-07-22T07:28:53.007Z,1011.66
2017-07-22T07:29:53.044Z,1011.78
2017-07-22T07:30:53.078Z,1011.76
2017-07-22T07:31:53.114Z,1011.59
2017-07-22T07:32:53.151Z,1011.49
2017-07-22T07:33:53.187Z,1011.41
2017-07-22T07:34:53.222Z,1011.45
2017-07-22T07:35:53.256Z,1011.53
2017-07-22T07:36:53.293Z,1011.5
2017-07-22T07:37:53.335Z,1011.54
2017-07-22T07:38:53.367Z,1011.42
2017-07-22T07:39:53.403Z,1011.35
2017-07-22T07:40:53.434Z,1011.07
2017-07-22T07:41:53.475Z,1011.15
2017-07-22T07:42:53.506Z,1011.1
2017-07-22T07:43:53.549Z,1011.07
2017-07-22T07:44:53.583Z,1011
2017-07-22T07:45:53.617Z,1011.02
2017-07-22T07:47:53.691Z,1010.73
2017-07-22T07:48:53.726Z,1010.78
2017-07-22T07:49:53.764Z,1010.81
2017-07-22T07:50:53.799Z,1010.85
2017-07-22T07:51:53.834Z,1010.82
2017-07-22T07:52:53.869Z,1010.77
2017-07-22T07:53:53.902Z,1010.84
2017-07-22T07:54:53.942Z,1010.69
2017-07-22T07:55:53.977Z,1010.58
2017-07-22T07:56:54.011Z,1010.62
2017-07-22T07:57:54.044Z,1010.54
2017-07-22T07:58:54.083Z,1010.47
2017-07-22T07:59:54.120Z,1010.48
2017-07-22T08:00:54.151Z,1010.42
2017-07-22T08:01:54.190Z,1010.48
2017-07-22T08:03:54.260Z,1010.43
2017-07-22T08:04:54.291Z,1010.44
2017-07-22T08:05:54.329Z,1010.43
2017-07-22T08:06:54.364Z,1010.34
2017-07-22T08:07:54.398Z,1010.31
2017-07-22T08:08:54.439Z,1010.27
2017-07-22T08:09:54.466Z,1010.34
2017-07-22T08:10:54.497Z,1010.29
2017-07-22T08:11:54.533Z,1010.33
2017-07-22T08:12:54.569Z,1010.22
2017-07-22T08:13:54.600Z,1010.35
2017-07-22T08:14:54.636Z,1010.42
2017-07-22T08:15:54.667Z,1010.38
2017-07-22T08:16:54.702Z,1010.28
2017-07-22T08:17:54.732Z,1010.44
2017-07-22T08:19:54.800Z,1010.22
2017-07-22T08:20:54.835Z,1010.17
2017-07-22T08:21:54.867Z,1010.19
2017-07-22T08:22:54.894Z,1010.38
2017-07-22T08:23:54.931Z,1010.43
2017-07-22T08:24:54.964Z,1010.49
2017-07-22T08:25:54.992Z,1010.49
2017-07-22T08:26:55.025Z,1010.57
2017-07-22T08:27:55.063Z,1010.54
2017-07-22T08:28:55.098Z,1010.47
2017-07-22T08:29:55.124Z,1010.31
2017-07-22T08:30:55.163Z,1010.29
2017-07-22T08:31:55.194Z,1010.25
2017-07-22T08:32:55.229Z,1010.27
2017-07-22T08:33:55.262Z,1010.27
2017-07-22T08:35:55.330Z,1010.37
2017-07-22T08:36:55.366Z,1010.21
2017-07-22T08:37:55.397Z,1010.16
2017-07-22T08:38:55.431Z,1010.09
2017-07-22T08:39:55.461Z,1010.05
2017-07-22T08:40:55.498Z,1010.03
2017-07-22T08:41:55.531Z,1010.11
2017-07-22T08:42:55.565Z,1010.04
2017-07-22T08:43:55.597Z,1010.27
2017-07-22T08:44:55.634Z,1010.12
2017-07-22T08:45:55.664Z,1010.09
2017-07-22T08:46:55.698Z,1010.32
2017-07-22T08:47:55.729Z,1010.26
2017-07-22T08:48:55.763Z,1010.21
2017-07-22T08:50:55.829Z,1010.05
2017-07-22T08:51:55.863Z,1010.05
2017-07-22T08:52:55.896Z,1010.01
2017-07-22T08:53:55.930Z,1009.99
2017-07-22T08:54:55.962Z,1010.06
2017-07-22T08:55:55.992Z,1010.03
2017-07-22T08:56:56.030Z,1010
2017-07-22T08:57:56.060Z,1009.97
2017-07-22T08:58:56.091Z,1009.95
2017-07-22T08:59:56.128Z,1009.94
2017-07-22T09:00:56.160Z,1009.97
2017-07-22T09:01:56.195Z,1010.06
2017-07-22T09:02:56.229Z,1009.95
2017-07-22T09:03:56.260Z,1010.03
2017-07-22T09:04:56.291Z,1009.98
2017-07-22T09:05:56.325Z,1009.95
2017-07-22T09:06:56.357Z,1009.97
2017-07-22T09:07:56.386Z,1009.92
2017-07-22T09:08:56.424Z,1009.92
2017-07-22T09:09:56.454Z,1009.92
2017-07-22T09:10:56.488Z,1009.92
2017-07-22T09:11:56.519Z,1009.85
2017-07-22T09:12:56.551Z,1009.83
2017-07-22T09:13:56.584Z,1009.83
2017-07-22T09:14:56.616Z,1009.83
2017-07-22T09:15:56.647Z,1009.8
2017-07-22T09:16:56.677Z,1009.78
2017-07-22T09:17:56.709Z,1009.79
2017-07-22T09:18:56.740Z,1009.76
2017-07-22T09:19:56.775Z,1009.75
2017-07-22T09:20:56.804Z,1009.78
2017-07-22T09:22:56.868Z,1009.72
2017-07-22T09:23:56.895Z,1009.75
2017-07-22T09:24:56.930Z,1009.75
2017-07-22T09:25:56.961Z,1009.73
2017-07-22T09:26:56.993Z,1009.77
2017-07-22T09:27:57.026Z,1009.75
2017-07-22T09:28:57.049Z,1009.67
2017-07-22T09:29:57.085Z,1009.71
2017-07-22T09:30:57.112Z,1009.69
2017-07-22T09:31:57.149Z,1009.7
2017-07-22T09:32:57.179Z,1009.71
2017-07-22T09:33:57.208Z,1009.66
2017-07-22T09:34:57.242Z,1009.8
2017-07-22T09:35:57.270Z,1009.67
2017-07-22T09:36:57.303Z,1009.72
2017-07-22T09:38:57.364Z,1009.66
2017-07-22T09:39:57.392Z,1009.68
2017-07-22T09:40:57.472Z,1009.62
2017-07-22T09:41:57.453Z,1009.68
2017-07-22T09:42:57.486Z,1009.64
2017-07-22T09:43:57.516Z,1009.61
2017-07-22T09:44:57.546Z,1009.55
2017-07-22T09:45:57.575Z,1009.59
2017-07-22T09:46:57.607Z,1009.64
2017-07-22T09:47:57.638Z,1009.49
2017-07-22T09:48:57.670Z,1009.55
2017-07-22T09:49:57.698Z,1009.54
2017-07-22T09:50:57.730Z,1009.58
2017-07-22T09:51:57.763Z,1009.54
2017-07-22T09:52:57.792Z,1009.54
2017-07-22T09:54:57.853Z,1009.6
2017-07-22T09:55:57.884Z,1009.45
2017-07-22T09:56:57.912Z,1009.46
2017-07-22T09:57:57.944Z,1009.46
2017-07-22T09:58:57.976Z,1009.5
2017-07-22T09:59:58.005Z,1009.44
2017-07-22T10:00:58.039Z,1009.48
2017-07-22T10:01:58.069Z,1009.36
2017-07-22T10:02:58.098Z,1009.45
2017-07-22T10:03:58.129Z,1009.42
2017-07-22T10:04:58.158Z,1009.43
2017-07-22T10:05:58.192Z,1009.35
2017-07-22T10:06:58.226Z,1009.49
2017-07-22T10:07:58.254Z,1009.37
2017-07-22T10:08:58.286Z,1009.37
2017-07-22T10:10:58.345Z,1009.3
2017-07-22T10:11:58.376Z,1009.29
2017-07-22T10:12:58.412Z,1009.27
2017-07-22T10:13:58.443Z,1009.28
2017-07-22T10:14:58.477Z,1009.22
2017-07-22T10:15:58.505Z,1009.3
2017-07-22T10:16:58.536Z,1009.26
2017-07-22T10:17:58.566Z,1009.33
2017-07-22T10:18:58.597Z,1009.32
2017-07-22T10:19:58.629Z,1009.31
2017-07-22T10:20:58.660Z,1009.3
2017-07-22T10:21:58.691Z,1009.32
2017-07-22T10:22:58.723Z,1009.33
2017-07-22T10:23:58.755Z,1009.31
2017-07-22T10:25:58.817Z,1009.3
2017-07-22T10:26:58.846Z,1009.34
2017-07-22T10:27:58.881Z,1009.36
2017-07-22T10:28:58.912Z,1009.36
2017-07-22T10:29:58.943Z,1009.29
2017-07-22T10:30:58.974Z,1009.32
2017-07-22T10:31:59.014Z,1009.34
2017-07-22T10:32:59.033Z,1009.36
2017-07-22T10:33:59.065Z,1009.38
2017-07-22T10:34:59.098Z,1009.29
2017-07-22T10:35:59.129Z,1009.36
2017-07-22T10:36:59.160Z,1009.35
2017-07-22T10:37:59.191Z,1009.35
2017-07-22T10:38:59.221Z,1009.31
2017-07-22T10:39:59.249Z,1009.28
2017-07-22T10:40:59.283Z,1009.22
2017-07-22T10:41:59.309Z,1009.27
2017-07-22T10:42:59.347Z,1009.37
2017-07-22T10:43:59.376Z,1009.34
2017-07-22T10:44:59.406Z,1009.27
2017-07-22T10:45:59.437Z,1009.15
2017-07-22T10:46:59.470Z,1009.24
2017-07-22T10:47:59.496Z,1009.27
2017-07-22T10:48:59.530Z,1009.2
2017-07-22T10:49:59.559Z,1009.23
2017-07-22T10:50:59.592Z,1009.21
2017-07-22T10:51:59.624Z,1009.23
2017-07-22T10:52:59.654Z,1009.25
2017-07-22T10:53:59.685Z,1009.25
2017-07-22T10:54:59.715Z,1009.27
2017-07-22T10:55:59.746Z,1009.31
2017-07-22T10:57:59.812Z,1009.21
2017-07-22T10:58:59.842Z,1009.23
2017-07-22T10:59:59.875Z,1009.24
2017-07-22T11:00:59.907Z,1009.23
2017-07-22T11:01:59.937Z,1009.2
2017-07-22T11:02:59.968Z,1009.23
2017-07-22T11:03:59.997Z,1009.18
2017-07-22T11:05:00.035Z,1009.22
2017-07-22T11:06:00.062Z,1009.16
2017-07-22T11:07:00.093Z,1009.18
2017-07-22T11:08:00.127Z,1009.18
2017-07-22T11:09:00.158Z,1009.19
2017-07-22T11:10:00.191Z,1009.14
2017-07-22T11:11:00.222Z,1009.17
2017-07-22T11:12:00.254Z,1009.13
2017-07-22T11:14:00.317Z,1009.13
2017-07-22T11:15:00.346Z,1009.1
2017-07-22T11:16:00.383Z,1009.1
2017-07-22T11:17:00.407Z,1009.12
2017-07-22T11:18:00.441Z,1009.05
2017-07-22T11:19:00.473Z,1009.07
2017-07-22T11:20:00.507Z,1009.1
2017-07-22T11:21:00.539Z,1009.05
2017-07-22T11:22:00.569Z,1009.09
2017-07-22T11:23:00.597Z,1009.03
2017-07-22T11:24:00.635Z,1009.01
2017-07-22T11:25:00.665Z,1009.08
2017-07-22T11:26:00.696Z,1009.04
2017-07-22T11:27:00.728Z,1008.99
2017-07-22T11:28:00.755Z,1009.03
2017-07-22T11:30:00.819Z,1009.02
2017-07-22T11:31:00.854Z,1009.03
2017-07-22T11:32:00.889Z,1008.98
2017-07-22T11:33:00.917Z,1008.97
2017-07-22T11:34:00.950Z,1008.98
2017-07-22T11:35:00.980Z,1009.02
2017-07-22T11:36:01.014Z,1008.98
2017-07-22T11:37:01.043Z,1008.93
2017-07-22T11:38:01.076Z,1008.97
2017-07-22T11:39:01.109Z,1008.99
2017-07-22T11:40:01.135Z,1008.99
2017-07-22T11:41:01.168Z,1009.03
2017-07-22T11:42:01.202Z,1008.98
2017-07-22T11:43:01.231Z,1008.96
2017-07-22T11:44:01.266Z,1008.97
2017-07-22T11:46:01.325Z,1008.9
2017-07-22T11:47:01.361Z,1008.86
2017-07-22T11:48:01.389Z,1008.87
2017-07-22T11:49:01.422Z,1008.79
2017-07-22T11:50:01.451Z,1008.85
2017-07-22T11:51:01.485Z,1008.79
2017-07-22T11:52:01.515Z,1008.73
2017-07-22T11:53:01.549Z,1008.76
2017-07-22T11:54:01.576Z,1008.69
2017-07-22T11:55:01.610Z,1008.68
2017-07-22T11:56:01.641Z,1008.71
2017-07-22T11:57:01.671Z,1008.66
2017-07-22T11:58:01.704Z,1008.65
2017-07-22T11:59:01.734Z,1008.52
2017-07-22T12:01:01.798Z,1008.53
2017-07-22T12:02:01.829Z,1008.54
2017-07-22T12:03:01.861Z,1008.52
2017-07-22T12:04:01.892Z,1008.55
2017-07-22T12:05:01.925Z,1008.49
2017-07-22T12:06:01.954Z,1008.47
2017-07-22T12:07:01.989Z,1008.47
2017-07-22T12:08:02.019Z,1008.39
2017-07-22T12:09:02.046Z,1008.3
2017-07-22T12:10:02.081Z,1008.29
2017-07-22T12:11:02.109Z,1008.25
2017-07-22T12:12:02.146Z,1008.29
2017-07-22T12:13:02.175Z,1008.21
2017-07-22T12:14:02.205Z,1008.23
2017-07-22T12:15:02.240Z,1008.21
2017-07-22T12:16:02.268Z,1008.16
2017-07-22T12:17:02.301Z,1008.14
2017-07-22T12:18:02.327Z,1008.05
2017-07-22T12:19:02.363Z,1008.1
2017-07-22T12:20:02.392Z,1008.04
2017-07-22T12:21:02.424Z,1008.03
2017-07-22T12:22:02.457Z,1008.03
2017-07-22T12:23:02.484Z,1008
2017-07-22T12:24:02.514Z,1007.93
2017-07-22T12:25:02.557Z,1007.93
2017-07-22T12:26:02.584Z,1008
2017-07-22T12:27:02.609Z,1007.94
2017-07-22T12:28:02.644Z,1007.91
2017-07-22T12:29:02.675Z,1007.85
2017-07-22T12:30:02.708Z,1007.91
2017-07-22T12:31:02.734Z,1007.91
2017-07-22T12:33:02.799Z,1007.88
2017-07-22T12:34:02.828Z,1007.79
2017-07-22T12:35:02.863Z,1007.88
2017-07-22T12:36:02.887Z,1007.9
2017-07-22T12:37:02.926Z,1007.86
2017-07-22T12:38:02.953Z,1007.83
2017-07-22T12:39:02.988Z,1007.8
2017-07-22T12:40:03.014Z,1007.83
2017-07-22T12:41:03.046Z,1007.79
2017-07-22T12:42:03.074Z,1007.83
2017-07-22T12:43:03.109Z,1007.84
2017-07-22T12:44:03.138Z,1007.84
2017-07-22T12:45:03.170Z,1007.76
2017-07-22T12:46:03.200Z,1007.81
2017-07-22T12:47:03.226Z,1007.74
2017-07-22T12:49:03.291Z,1007.71
2017-07-22T12:50:03.319Z,1007.67